createdAt,value
2022-09-04T00:01:51.980Z,100.00
2022-09-04T00:04:28.798Z,100.00
2022-09-04T00:07:06.867Z,100.00
2022-09-04T00:09:43.406Z,100.00
2022-09-04T00:12:10.206Z,100.00
2022-09-04T00:14:43.072Z,100.00
2022-09-04T00:17:17.462Z,100.00
2022-09-04T00:19:49.675Z,100.00
2022-09-04T00:22:28.299Z,100.00
2022-09-04T00:25:03.352Z,100.00
2022-09-04T00:27:36.049Z,100.00
2022-09-04T00:30:06.742Z,100.00
2022-09-04T00:32:41.243Z,100.00
2022-09-04T00:35:13.891Z,100.00
2022-09-04T00:37:46.235Z,100.00
2022-09-04T00:40:20.445Z,100.00
2022-09-04T00:43:01.863Z,100.00
2022-09-04T00:45:40.237Z,100.00
2022-09-04T00:48:23.442Z,100.00
2022-09-04T00:51:12.701Z,100.00
2022-09-04T00:54:04.463Z,100.00
2022-09-04T00:56:55.192Z,100.00
2022-09-04T00:59:38.818Z,100.00
2022-09-04T01:02:20.556Z,100.00
2022-09-04T01:05:00.074Z,100.00
2022-09-04T01:07:43.718Z,100.00
2022-09-04T01:10:33.209Z,100.00
2022-09-04T01:13:07.911Z,100.00
2022-09-04T01:15:40.490Z,100.00
2022-09-04T01:18:12.280Z,100.00
2022-09-04T01:21:20.628Z,100.00
2022-09-04T01:24:07.880Z,100.00
2022-09-04T01:26:45.571Z,100.00
2022-09-04T01:29:23.548Z,100.00
2022-09-04T01:31:56.368Z,100.00
2022-09-04T01:34:35.389Z,100.00
2022-09-04T01:37:16.001Z,100.00
2022-09-04T01:39:46.591Z,100.00
2022-09-04T01:42:23.078Z,100.00
2022-09-04T01:44:49.871Z,100.00
2022-09-04T01:47:25.837Z,100.00
2022-09-04T01:49:58.153Z,100.00
2022-09-04T01:52:36.886Z,100.00
2022-09-04T01:55:13.611Z,100.00
2022-09-04T01:57:57.757Z,100.00
2022-09-04T02:00:25.213Z,100.00
2022-09-04T02:02:59.396Z,100.00
2022-09-04T02:05:36.753Z,100.00
2022-09-04T02:08:16.679Z,100.00
2022-09-04T02:10:50.410Z,100.00
2022-09-04T02:13:23.011Z,100.00
2022-09-04T02:16:04.838Z,100.00
2022-09-04T02:18:44.284Z,100.00
2022-09-04T02:21:20.239Z,100.00
2022-09-04T02:23:56.257Z,100.00
2022-09-04T02:26:29.236Z,100.00
2022-09-04T02:29:02.430Z,100.00
2022-09-04T02:31:36.626Z,100.00
2022-09-04T02:34:08.464Z,100.00
2022-09-04T02:36:42.994Z,100.00
2022-09-04T02:39:24.217Z,100.00
2022-09-04T02:41:59.303Z,100.00
2022-09-04T02:44:38.954Z,100.00
2022-09-04T02:47:13.989Z,100.00
2022-09-04T02:49:51.589Z,100.00
2022-09-04T02:52:31.548Z,100.00
2022-09-04T02:55:11.667Z,100.00
2022-09-04T02:57:51.116Z,100.00
2022-09-04T03:00:22.631Z,100.00
2022-09-04T03:02:55.650Z,100.00
2022-09-04T03:05:25.537Z,100.00
2022-09-04T03:07:59.238Z,100.00
2022-09-04T03:10:31.650Z,100.00
2022-09-04T03:13:05.723Z,100.00
2022-09-04T03:15:43.836Z,100.00
2022-09-04T03:18:19.575Z,100.00
2022-09-04T03:20:53.900Z,100.00
2022-09-04T03:23:30.458Z,100.00
2022-09-04T03:26:12.614Z,100.00
2022-09-04T03:28:46.022Z,100.00
2022-09-04T03:31:28.873Z,100.00
2022-09-04T03:34:07.534Z,100.00
2022-09-04T03:36:43.898Z,100.00
2022-09-04T03:39:18.871Z,100.00
2022-09-04T03:41:54.581Z,100.00
2022-09-04T03:44:31.888Z,100.00
2022-09-04T03:47:09.966Z,100.00
2022-09-04T03:49:50.358Z,100.00
2022-09-04T03:52:26.014Z,100.00
2022-09-04T03:55:12.858Z,100.00
2022-09-04T03:58:04.419Z,100.00
2022-09-04T04:00:41.852Z,100.00
2022-09-04T04:03:27.515Z,100.00
2022-09-04T04:06:09.295Z,100.00
2022-09-04T04:08:58.951Z,100.00
2022-09-04T04:11:43.427Z,100.00
2022-09-04T04:14:26.251Z,100.00
2022-09-04T04:17:06.379Z,100.00
2022-09-04T04:20:02.744Z,100.00
2022-09-04T04:22:46.617Z,100.00
2022-09-04T04:25:33.027Z,100.00
2022-09-04T04:28:12.609Z,100.00
2022-09-04T04:30:48.152Z,100.00
2022-09-04T04:33:40.053Z,100.00
2022-09-04T04:36:16.279Z,100.00
2022-09-04T04:39:04.617Z,100.00
2022-09-04T04:41:41.162Z,100.00
2022-09-04T04:44:15.328Z,100.00
2022-09-04T04:47:02.120Z,100.00
2022-09-04T04:49:43.452Z,100.00
2022-09-04T04:52:27.252Z,100.00
2022-09-04T04:55:05.517Z,100.00
2022-09-04T04:57:44.387Z,100.00
2022-09-04T05:00:15.577Z,100.00
2022-09-04T05:02:51.951Z,100.00
2022-09-04T05:05:41.870Z,100.00
2022-09-04T05:08:20.999Z,100.00
2022-09-04T05:10:53.631Z,100.00
2022-09-04T05:13:25.929Z,100.00
2022-09-04T05:16:09.946Z,100.00
2022-09-04T05:18:45.144Z,100.00
2022-09-04T05:21:19.473Z,100.00
2022-09-04T05:23:55.593Z,100.00
2022-09-04T05:26:29.188Z,100.00
2022-09-04T05:29:01.136Z,100.00
2022-09-04T05:31:39.047Z,100.00
2022-09-04T05:34:12.307Z,100.00
2022-09-04T05:36:50.635Z,100.00
2022-09-04T05:39:28.085Z,100.00
2022-09-04T05:42:07.970Z,100.00
2022-09-04T05:44:53.595Z,100.00
2022-09-04T05:47:41.993Z,100.00
2022-09-04T05:50:36.766Z,100.00
2022-09-04T05:53:27.493Z,100.00
2022-09-04T05:56:25.768Z,100.00
2022-09-04T05:59:18.321Z,100.00
2022-09-04T06:02:27.274Z,100.00
2022-09-04T06:05:15.386Z,100.00
2022-09-04T06:08:00.461Z,100.00
2022-09-04T06:10:37.428Z,100.00
2022-09-04T06:13:28.777Z,100.00
2022-09-04T06:16:11.240Z,100.00
2022-09-04T06:18:56.561Z,100.00
2022-09-04T06:22:02.530Z,100.00
2022-09-04T06:25:04.457Z,100.00
2022-09-04T06:27:51.688Z,100.00
2022-09-04T06:30:19.930Z,100.00
2022-09-04T06:33:11.378Z,100.00
2022-09-04T06:36:19.435Z,100.00
2022-09-04T06:39:03.635Z,100.00
2022-09-04T06:41:43.484Z,100.00
2022-09-04T06:44:24.556Z,100.00
2022-09-04T06:47:02.794Z,100.00
2022-09-04T06:49:40.057Z,100.00
2022-09-04T06:52:19.118Z,100.00
2022-09-04T06:54:58.231Z,100.00
2022-09-04T06:57:43.380Z,100.00
2022-09-04T07:00:11.876Z,100.00
2022-09-04T07:03:11.442Z,100.00
2022-09-04T07:05:47.568Z,100.00
2022-09-04T07:08:26.560Z,100.00
2022-09-04T07:11:03.366Z,100.00
2022-09-04T07:13:58.486Z,100.00
2022-09-04T07:16:36.469Z,100.00
2022-09-04T07:19:48.562Z,100.00
2022-09-04T07:22:56.714Z,100.00
2022-09-04T07:25:27.449Z,100.00
2022-09-04T07:28:11.225Z,100.00
2022-09-04T07:30:44.081Z,100.00
2022-09-04T07:33:19.269Z,100.00
2022-09-04T07:35:53.950Z,100.00
2022-09-04T07:38:33.323Z,100.00
2022-09-04T07:41:05.485Z,100.00
2022-09-04T07:43:40.645Z,100.00
2022-09-04T07:46:22.158Z,100.00
2022-09-04T07:48:54.906Z,100.00
2022-09-04T07:51:27.093Z,100.00
2022-09-04T07:54:29.031Z,100.00
2022-09-04T07:57:20.197Z,100.00
2022-09-04T08:00:04.101Z,100.00
2022-09-04T08:03:25.163Z,100.00
2022-09-04T08:05:57.821Z,100.00
2022-09-04T08:08:52.190Z,98.54
2022-09-04T08:11:56.063Z,99.15
2022-09-04T08:14:32.969Z,97.76
2022-09-04T08:17:37.981Z,95.43
2022-09-04T08:20:17.764Z,96.61
2022-09-04T08:22:53.126Z,92.89
2022-09-04T08:25:27.801Z,87.34
2022-09-04T08:28:29.142Z,68.57
2022-09-04T08:31:04.217Z,52.99
2022-09-04T08:33:53.347Z,44.81
2022-09-04T08:36:31.133Z,37.75
2022-09-04T08:39:07.485Z,37.26
2022-09-04T08:42:15.533Z,34.85
2022-09-04T08:45:28.859Z,32.06
2022-09-04T08:48:37.285Z,31.42
2022-09-04T08:51:32.903Z,29.97
2022-09-04T08:54:32.440Z,28.51
2022-09-04T08:57:21.826Z,28.33
2022-09-04T09:00:09.516Z,28.68
2022-09-04T09:03:14.846Z,28.49
2022-09-04T09:06:40.381Z,27.84
2022-09-04T09:09:45.613Z,28.30
2022-09-04T09:12:41.751Z,27.25
2022-09-04T09:15:57.279Z,26.20
2022-09-04T09:18:40.346Z,26.42
2022-09-04T09:21:10.461Z,25.91
2022-09-04T09:23:44.480Z,25.87
2022-09-04T09:26:24.264Z,26.57
2022-09-04T09:29:18.264Z,26.29
2022-09-04T09:32:21.489Z,25.56
2022-09-04T09:35:24.298Z,26.05
2022-09-04T09:38:13.231Z,26.08
2022-09-04T09:41:03.826Z,25.61
2022-09-04T09:44:06.509Z,24.28
2022-09-04T09:47:03.935Z,24.29
2022-09-04T09:50:02.720Z,24.02
2022-09-04T09:52:58.658Z,24.24
2022-09-04T09:56:02.589Z,23.33
2022-09-04T09:59:14.947Z,23.29
2022-09-04T10:02:11.944Z,23.78
2022-09-04T10:05:20.376Z,23.53
2022-09-04T10:08:35.713Z,23.71
2022-09-04T10:11:33.736Z,23.72
2022-09-04T10:14:27.466Z,24.28
2022-09-04T10:17:27.108Z,23.67
2022-09-04T10:20:23.790Z,22.11
2022-09-04T10:23:11.171Z,23.58
2022-09-04T10:26:02.155Z,22.23
2022-09-04T10:29:21.910Z,21.82
2022-09-04T10:32:14.336Z,22.31
2022-09-04T10:34:58.686Z,21.61
2022-09-04T10:37:49.073Z,21.37
2022-09-04T10:40:26.559Z,21.61
2022-09-04T10:43:08.563Z,22.47
2022-09-04T10:45:39.043Z,21.53
2022-09-04T10:48:30.989Z,21.13
2022-09-04T10:51:29.593Z,20.86
2022-09-04T10:54:18.842Z,20.68
2022-09-04T10:56:58.603Z,21.14
2022-09-04T10:59:59.980Z,20.79
2022-09-04T11:03:09.727Z,21.15
2022-09-04T11:06:17.538Z,19.43
2022-09-04T11:09:10.823Z,19.11
2022-09-04T11:11:57.182Z,20.44
2022-09-04T11:14:46.500Z,20.88
2022-09-04T11:17:40.942Z,20.44
2022-09-04T11:20:53.071Z,20.13
2022-09-04T11:24:06.389Z,21.05
2022-09-04T11:27:14.181Z,23.19
2022-09-04T11:29:58.538Z,23.89
2022-09-04T11:32:51.705Z,22.92
2022-09-04T11:35:43.891Z,23.52
2022-09-04T11:38:39.321Z,22.62
2022-09-04T11:41:51.732Z,23.33
2022-09-04T11:44:47.565Z,25.39
2022-09-04T11:47:49.867Z,26.70
2022-09-04T11:50:41.266Z,26.80
2022-09-04T11:53:46.785Z,24.96
2022-09-04T11:56:40.889Z,24.50
2022-09-04T11:59:28.142Z,22.73
2022-09-04T12:02:18.511Z,22.33
2022-09-04T12:05:07.686Z,22.09
2022-09-04T12:07:53.152Z,24.19
2022-09-04T12:10:34.905Z,24.36
2022-09-04T12:13:16.639Z,24.14
2022-09-04T12:16:10.203Z,26.32
2022-09-04T12:19:12.179Z,28.38
2022-09-04T12:22:25.027Z,29.47
2022-09-04T12:25:14.380Z,31.09
2022-09-04T12:28:15.319Z,32.52
2022-09-04T12:30:57.518Z,29.88
2022-09-04T12:33:46.369Z,28.22
2022-09-04T12:36:32.877Z,26.27
2022-09-04T12:39:14.179Z,26.18
2022-09-04T12:41:50.020Z,27.46
2022-09-04T12:44:29.146Z,28.76
2022-09-04T12:47:07.431Z,30.17
2022-09-04T12:49:54.421Z,29.26
2022-09-04T12:52:28.662Z,27.78
2022-09-04T12:55:09.289Z,26.07
2022-09-04T12:57:40.061Z,25.59
2022-09-04T13:00:09.471Z,24.30
2022-09-04T13:02:50.419Z,24.24
2022-09-04T13:05:46.784Z,23.72
2022-09-04T13:08:33.214Z,24.28
2022-09-04T13:11:12.934Z,23.76
2022-09-04T13:13:48.267Z,23.84
2022-09-04T13:16:25.599Z,23.70
2022-09-04T13:19:03.801Z,25.95
2022-09-04T13:21:51.967Z,27.91
2022-09-04T13:24:30.698Z,25.73
2022-09-04T13:27:15.126Z,26.46
2022-09-04T13:29:54.500Z,25.38
2022-09-04T13:32:41.989Z,25.47
2022-09-04T13:35:19.716Z,25.26
2022-09-04T13:38:02.933Z,25.21
2022-09-04T13:40:48.563Z,25.97
2022-09-04T13:43:44.569Z,25.99
2022-09-04T13:46:17.817Z,25.36
2022-09-04T13:48:51.178Z,26.34
2022-09-04T13:51:23.099Z,26.56
2022-09-04T13:54:02.482Z,26.45
2022-09-04T13:56:33.214Z,25.56
2022-09-04T13:59:06.208Z,27.36
2022-09-04T14:01:34.450Z,26.86
2022-09-04T14:04:07.344Z,25.11
2022-09-04T14:06:36.261Z,26.54
2022-09-04T14:09:06.171Z,26.19
2022-09-04T14:11:58.494Z,27.29
2022-09-04T14:14:49.701Z,29.43
2022-09-04T14:17:18.992Z,27.60
2022-09-04T14:19:54.958Z,28.71
2022-09-04T14:22:40.331Z,29.75
2022-09-04T14:25:16.180Z,29.56
2022-09-04T14:27:55.497Z,30.07
2022-09-04T14:30:23.327Z,30.52
2022-09-04T14:33:07.492Z,30.92
2022-09-04T14:35:45.414Z,30.93
2022-09-04T14:38:37.949Z,30.27
2022-09-04T14:41:19.360Z,31.13
2022-09-04T14:43:53.410Z,31.83
2022-09-04T14:46:26.747Z,31.21
2022-09-04T14:49:02.694Z,31.66
2022-09-04T14:51:37.096Z,31.88
2022-09-04T14:54:05.652Z,31.47
2022-09-04T14:56:37.687Z,31.65
2022-09-04T14:59:19.282Z,31.80
2022-09-04T15:01:56.448Z,31.54
2022-09-04T15:04:25.839Z,32.14
2022-09-04T15:07:12.376Z,32.02
2022-09-04T15:09:42.701Z,32.18
2022-09-04T15:12:24.592Z,31.84
2022-09-04T15:14:57.386Z,32.34
2022-09-04T15:17:27.541Z,31.71
2022-09-04T15:19:59.418Z,32.80
2022-09-04T15:22:35.955Z,32.18
2022-09-04T15:25:06.881Z,32.66
2022-09-04T15:27:42.921Z,32.64
2022-09-04T15:30:18.426Z,32.40
2022-09-04T15:32:47.181Z,33.18
2022-09-04T15:35:17.455Z,33.01
2022-09-04T15:37:48.579Z,35.36
2022-09-04T15:40:24.362Z,33.38
2022-09-04T15:43:01.533Z,33.76
2022-09-04T15:45:35.888Z,33.88
2022-09-04T15:48:17.564Z,33.46
2022-09-04T15:51:10.543Z,33.13
2022-09-04T15:53:44.172Z,33.44
2022-09-04T15:56:30.661Z,32.92
2022-09-04T15:59:04.650Z,34.10
2022-09-04T16:01:41.628Z,32.86
2022-09-04T16:04:20.436Z,34.41
2022-09-04T16:06:52.559Z,34.41
2022-09-04T16:09:25.998Z,34.00
2022-09-04T16:12:04.123Z,32.87
2022-09-04T16:14:39.947Z,33.13
2022-09-04T16:17:16.101Z,35.49
2022-09-04T16:19:49.481Z,35.66
2022-09-04T16:22:33.375Z,35.04
2022-09-04T16:25:08.034Z,34.35
2022-09-04T16:27:44.156Z,35.97
2022-09-04T16:30:26.049Z,35.42
2022-09-04T16:32:52.894Z,33.89
2022-09-04T16:35:22.267Z,32.95
2022-09-04T16:37:54.122Z,34.67
2022-09-04T16:40:29.288Z,35.43
2022-09-04T16:43:00.552Z,35.96
2022-09-04T16:45:33.977Z,35.71
2022-09-04T16:48:33.489Z,38.81
2022-09-04T16:50:54.759Z,35.62
2022-09-04T16:53:26.909Z,37.35
2022-09-04T16:56:00.017Z,34.91
2022-09-04T16:58:37.115Z,36.97
2022-09-04T17:01:14.072Z,39.74
2022-09-04T17:03:49.475Z,35.52
2022-09-04T17:06:26.429Z,37.94
2022-09-04T17:09:03.650Z,37.13
2022-09-04T17:11:39.865Z,36.29
2022-09-04T17:14:17.669Z,40.20
2022-09-04T17:17:13.822Z,39.16
2022-09-04T17:20:02.145Z,41.36
2022-09-04T17:28:57.996Z,42.77
2022-09-04T17:29:00.617Z,41.60
2022-09-04T17:29:08.241Z,42.49
2022-09-04T17:31:33.911Z,44.16
2022-09-04T17:39:25.766Z,43.95
2022-09-04T17:40:38.228Z,45.24
2022-09-04T17:40:51.161Z,44.46
2022-09-04T17:43:15.759Z,43.80
2022-09-04T17:45:49.268Z,44.53
2022-09-04T17:48:21.798Z,47.24
2022-09-04T17:50:52.704Z,48.54
2022-09-04T17:53:34.025Z,46.92
2022-09-04T17:56:08.108Z,50.30
2022-09-04T17:58:40.407Z,51.27
2022-09-04T18:01:16.751Z,52.21
2022-09-04T18:04:12.118Z,52.35
2022-09-04T18:06:43.412Z,53.17
2022-09-04T18:09:19.892Z,52.84
2022-09-04T18:12:03.002Z,50.32
2022-09-04T18:14:38.659Z,50.42
2022-09-04T18:17:13.261Z,51.27
2022-09-04T18:19:45.278Z,51.73
2022-09-04T18:22:26.415Z,53.09
2022-09-04T18:25:15.930Z,53.23
2022-09-04T18:28:06.321Z,53.88
2022-09-04T18:35:45.445Z,53.72
2022-09-04T18:37:20.596Z,53.95
